Time;durP1;ratioP1;P1;durP2;ratioP2;P2;SDS_P1;SDS_P2;PMS_P1;PMS_P2;Temp;Humidity;BMP_temperature;BMP_pressure;BME280_temperature;BME280_humidity;BME280_pressure;Samples;Min_cycle;Max_cycle;Signal;HPM_P1;HPM_P2
2023/07/29 00:01:53;;;;;;;18.65;16.90;;;18.10;99.90;;;;;;5139838;27;20457;-41
2023/07/29 00:04:20;;;;;;;18.90;17.00;;;18.10;99.90;;;;;;5138830;27;20039;-47
2023/07/29 00:06:46;;;;;;;17.33;15.40;;;18.00;99.90;;;;;;5139835;27;20065;-40
2023/07/29 00:09:12;;;;;;;18.38;15.93;;;18.10;99.90;;;;;;5103242;27;20047;-40
2023/07/29 00:11:38;;;;;;;18.05;16.35;;;18.00;99.90;;;;;;5119269;27;20155;-40
2023/07/29 00:14:04;;;;;;;17.48;15.68;;;18.00;99.90;;;;;;5118479;27;20263;-40
2023/07/29 00:16:29;;;;;;;18.08;16.38;;;18.00;99.90;;;;;;5100033;27;20047;-40
2023/07/29 00:18:55;;;;;;;18.50;16.80;;;18.00;99.90;;;;;;5118975;27;20126;-41
2023/07/29 00:21:21;;;;;;;17.63;16.02;;;18.00;99.90;;;;;;5118328;27;20039;-41
2023/07/29 00:23:46;;;;;;;18.95;17.08;;;18.00;99.90;;;;;;5091941;28;20580;-40
2023/07/29 00:26:12;;;;;;;16.52;15.02;;;18.00;99.90;;;;;;5137248;27;20051;-41
2023/07/29 00:28:38;;;;;;;17.13;15.48;;;18.00;99.90;;;;;;5119686;27;20046;-41
2023/07/29 00:31:03;;;;;;;17.70;15.90;;;18.00;99.90;;;;;;5139826;27;20484;-41
2023/07/29 00:33:29;;;;;;;17.98;16.17;;;17.90;99.90;;;;;;5138170;27;20408;-40
2023/07/29 00:35:54;;;;;;;18.35;16.42;;;17.90;99.90;;;;;;5118727;27;20051;-40
2023/07/29 00:38:20;;;;;;;18.80;16.88;;;17.90;99.90;;;;;;5117906;27;20054;-40
2023/07/29 00:40:46;;;;;;;17.15;15.52;;;17.90;99.90;;;;;;5118125;27;20073;-40
2023/07/29 00:43:12;;;;;;;16.40;14.77;;;17.80;99.90;;;;;;5116422;27;20130;-40
2023/07/29 00:45:38;;;;;;;16.42;14.95;;;17.70;99.90;;;;;;5099023;27;20047;-40
2023/07/29 00:48:04;;;;;;;16.83;15.18;;;17.80;99.90;;;;;;5118188;27;20058;-41
2023/07/29 00:50:32;;;;;;;16.80;15.10;;;17.70;99.90;;;;;;5117036;27;20618;-39
2023/07/29 00:52:58;;;;;;;17.73;16.10;;;17.60;99.90;;;;;;5098361;27;20078;-40
2023/07/29 00:55:24;;;;;;;17.55;15.88;;;17.50;99.90;;;;;;5116698;27;20047;-41
2023/07/29 00:57:54;;;;;;;17.27;15.57;;;17.50;99.90;;;;;;5117347;27;20043;-40
2023/07/29 01:00:20;;;;;;;16.30;14.82;;;17.50;99.90;;;;;;5116662;27;20324;-41
2023/07/29 01:02:46;;;;;;;16.50;15.00;;;17.40;99.90;;;;;;5115882;27;20403;-40
2023/07/29 01:05:15;;;;;;;16.15;14.45;;;17.40;99.90;;;;;;5117068;27;20058;-41
2023/07/29 01:08:05;;;;;;;17.02;14.88;;;17.30;99.90;;;;;;5098442;27;20059;-41
2023/07/29 01:10:51;;;;;;;18.15;14.82;;;17.30;99.90;;;;;;5115690;27;20058;-40
2023/07/29 01:13:23;;;;;;;17.63;15.85;;;17.20;99.90;;;;;;5115947;27;20081;-40
2023/07/29 01:15:55;;;;;;;17.50;15.70;;;17.20;99.90;;;;;;5104220;27;20047;-41
2023/07/29 01:18:23;;;;;;;17.20;15.50;;;17.10;99.90;;;;;;5120114;27;20130;-41
2023/07/29 01:20:53;;;;;;;16.80;15.20;;;17.10;99.90;;;;;;5138135;27;20205;-40
2023/07/29 01:23:29;;;;;;;16.55;14.95;;;17.10;99.90;;;;;;5129812;27;20281;-42
2023/07/29 01:25:54;;;;;;;16.80;15.10;;;17.10;99.90;;;;;;5113988;27;20594;-40
2023/07/29 01:28:21;;;;;;;19.17;15.93;;;17.00;99.90;;;;;;5117218;27;20046;-41
2023/07/29 01:30:49;;;;;;;16.35;14.85;;;17.00;99.90;;;;;;5117144;27;20518;-40
2023/07/29 01:33:24;;;;;;;18.38;15.68;;;16.90;99.90;;;;;;5116453;27;20046;-40
2023/07/29 01:35:56;;;;;;;18.35;15.05;;;16.90;99.90;;;;;;5116469;27;20118;-40
2023/07/29 01:38:35;;;;;;;21.15;15.25;;;17.00;99.90;;;;;;5116866;27;20070;-40
2023/07/29 01:41:03;;;;;;;16.50;14.80;;;17.00;99.90;;;;;;5098686;27;20172;-40
2023/07/29 01:43:29;;;;;;;16.20;14.50;;;17.00;99.90;;;;;;5130859;27;20047;-43
2023/07/29 01:45:56;;;;;;;16.63;14.07;;;17.00;99.90;;;;;;5138477;27;20050;-40
2023/07/29 01:48:22;;;;;;;15.50;13.90;;;17.10;99.90;;;;;;5138172;27;20150;-39
2023/07/29 01:50:47;;;;;;;16.83;13.23;;;17.10;99.90;;;;;;5137127;27;20072;-41
2023/07/29 01:53:13;;;;;;;16.88;13.55;;;17.00;99.90;;;;;;5135984;27;20404;-40
2023/07/29 01:55:40;;;;;;;14.63;12.65;;;17.10;99.90;;;;;;5117997;27;20150;-40
2023/07/29 01:58:06;;;;;;;13.88;11.85;;;17.10;99.90;;;;;;5118419;27;20509;-40
2023/07/29 02:00:32;;;;;;;15.00;12.55;;;17.10;99.90;;;;;;5137587;27;20107;-39
2023/07/29 02:02:57;;;;;;;13.55;10.77;;;17.10;99.90;;;;;;5133763;27;20394;-41
2023/07/29 02:05:23;;;;;;;14.32;11.32;;;17.00;99.90;;;;;;5116631;27;20370;-41
2023/07/29 02:07:48;;;;;;;12.25;11.05;;;17.00;99.90;;;;;;5096354;27;20047;-41
2023/07/29 02:10:14;;;;;;;13.20;11.70;;;17.00;99.90;;;;;;5112366;27;20171;-41
2023/07/29 02:12:40;;;;;;;13.35;11.50;;;16.90;99.90;;;;;;5114870;27;20171;-40
2023/07/29 02:15:06;;;;;;;13.82;12.32;;;16.90;99.90;;;;;;5115850;27;20914;-40
2023/07/29 02:17:32;;;;;;;14.25;11.38;;;16.90;99.90;;;;;;5095998;27;20053;-40
2023/07/29 02:19:57;;;;;;;13.90;12.32;;;16.90;99.90;;;;;;5115668;27;20050;-40
2023/07/29 02:22:23;;;;;;;14.45;12.70;;;16.90;99.90;;;;;;5116737;27;20388;-40
2023/07/29 02:24:49;;;;;;;14.88;11.63;;;16.80;99.90;;;;;;5107184;27;20179;-41
2023/07/29 02:27:14;;;;;;;14.35;12.15;;;16.80;99.90;;;;;;5115570;27;20378;-41
2023/07/29 02:29:40;;;;;;;14.30;12.07;;;16.80;99.90;;;;;;5116206;27;20078;-40
2023/07/29 02:32:06;;;;;;;14.93;12.35;;;16.80;99.90;;;;;;5116277;27;20180;-41
2023/07/29 02:34:31;;;;;;;14.98;12.27;;;16.80;99.90;;;;;;5114849;27;20053;-40
2023/07/29 02:36:57;;;;;;;14.68;12.60;;;16.70;99.90;;;;;;5116221;27;20368;-41
2023/07/29 02:39:23;;;;;;;17.83;12.23;;;16.60;99.90;;;;;;5115709;27;20512;-40
2023/07/29 02:41:49;;;;;;;13.25;11.95;;;16.70;99.90;;;;;;5115936;27;20432;-40
2023/07/29 02:44:15;;;;;;;15.38;12.18;;;16.70;99.90;;;;;;5114152;27;20138;-41
2023/07/29 02:46:41;;;;;;;15.23;12.02;;;16.60;99.90;;;;;;5115358;27;20058;-42
2023/07/29 02:49:06;;;;;;;14.10;11.85;;;16.50;99.90;;;;;;5114629;27;20478;-42
2023/07/29 02:51:32;;;;;;;13.95;11.30;;;16.50;99.90;;;;;;5114785;27;20039;-40
2023/07/29 02:53:58;;;;;;;15.32;11.70;;;16.50;99.90;;;;;;5114325;27;20058;-41
2023/07/29 02:56:23;;;;;;;15.80;11.70;;;16.50;99.90;;;;;;5114988;27;20220;-43
2023/07/29 02:58:51;;;;;;;14.23;12.13;;;16.40;99.90;;;;;;5115484;27;20447;-39
2023/07/29 03:01:17;;;;;;;14.32;10.45;;;16.40;99.90;;;;;;5115532;27;20119;-40
2023/07/29 03:03:43;;;;;;;15.07;10.27;;;16.40;99.90;;;;;;5095395;27;20054;-40
2023/07/29 03:06:11;;;;;;;11.60;10.40;;;16.30;99.90;;;;;;5113774;27;20047;-41
2023/07/29 03:08:37;;;;;;;14.20;11.23;;;16.30;99.90;;;;;;5091809;27;20074;-40
2023/07/29 03:11:08;;;;;;;13.45;11.30;;;16.30;99.90;;;;;;5114430;27;20047;-40
2023/07/29 03:13:34;;;;;;;15.77;10.38;;;16.20;99.90;;;;;;5096269;27;20211;-40
2023/07/29 03:16:14;;;;;;;13.60;10.65;;;16.20;99.90;;;;;;5101350;27;20047;-40
2023/07/29 03:18:41;;;;;;;12.30;9.65;;;16.20;99.90;;;;;;5115488;27;20082;-41
2023/07/29 03:21:07;;;;;;;13.07;10.50;;;16.20;99.90;;;;;;5115896;27;20126;-43
2023/07/29 03:23:34;;;;;;;13.43;10.35;;;16.10;99.90;;;;;;5108929;27;20058;-41
2023/07/29 03:26:00;;;;;;;10.95;9.80;;;16.10;99.90;;;;;;5112778;27;20076;-41
2023/07/29 03:28:28;;;;;;;15.80;11.10;;;16.00;99.90;;;;;;5114987;27;20461;-41
2023/07/29 03:30:57;;;;;;;13.90;11.10;;;16.00;99.90;;;;;;5115295;27;20055;-40
2023/07/29 03:33:25;;;;;;;14.13;10.93;;;16.00;99.90;;;;;;5114213;27;20116;-40
2023/07/29 03:35:50;;;;;;;15.07;10.63;;;16.00;99.90;;;;;;5114727;27;20051;-41
2023/07/29 03:38:16;;;;;;;13.85;11.00;;;16.00;99.90;;;;;;5096283;28;20054;-41
2023/07/29 03:40:42;;;;;;;15.73;11.00;;;15.90;99.90;;;;;;5095225;28;20131;-41
2023/07/29 03:43:08;;;;;;;11.82;10.57;;;15.80;99.90;;;;;;5112483;27;20047;-40
2023/07/29 03:45:35;;;;;;;13.95;11.25;;;15.90;99.90;;;;;;5113298;27;20453;-40
2023/07/29 03:48:02;;;;;;;15.90;11.77;;;15.90;99.90;;;;;;5113663;27;20047;-41
2023/07/29 03:50:29;;;;;;;13.80;10.93;;;15.90;99.90;;;;;;5112992;27;20071;-41
2023/07/29 03:52:55;;;;;;;11.65;10.40;;;15.90;99.90;;;;;;5112974;28;20055;-40
2023/07/29 03:55:21;;;;;;;14.35;10.07;;;15.90;99.90;;;;;;5095294;28;20059;-40
2023/07/29 03:57:46;;;;;;;14.40;9.80;;;15.90;99.90;;;;;;5113063;27;20043;-40
2023/07/29 04:00:13;;;;;;;10.85;9.38;;;15.80;99.90;;;;;;5112051;27;20043;-41
2023/07/29 04:02:38;;;;;;;13.35;9.18;;;15.90;99.90;;;;;;5107292;27;20383;-41
2023/07/29 04:05:05;;;;;;;11.70;9.13;;;15.90;99.90;;;;;;5112198;27;20043;-40
2023/07/29 04:07:31;;;;;;;10.73;8.93;;;16.00;99.90;;;;;;5112866;27;20051;-41
2023/07/29 04:09:57;;;;;;;11.70;7.70;;;16.00;99.90;;;;;;5109695;27;20608;-42
2023/07/29 04:12:24;;;;;;;10.98;8.13;;;15.90;99.90;;;;;;5113767;27;20175;-41
2023/07/29 04:14:50;;;;;;;11.13;8.13;;;16.00;99.90;;;;;;5109318;27;20108;-40
2023/07/29 04:17:15;;;;;;;9.95;7.20;;;16.00;99.90;;;;;;5107435;27;20043;-40
2023/07/29 04:19:41;;;;;;;11.05;6.65;;;16.10;99.90;;;;;;5115016;27;20047;-40
2023/07/29 04:22:07;;;;;;;10.27;7.40;;;16.10;99.90;;;;;;5116069;27;20082;-41
2023/07/29 04:24:32;;;;;;;8.52;6.72;;;16.20;99.90;;;;;;5105945;27;20143;-42
2023/07/29 04:26:58;;;;;;;11.02;7.50;;;16.10;99.90;;;;;;5115290;27;20054;-42
2023/07/29 04:29:24;;;;;;;9.93;7.15;;;16.20;99.90;;;;;;5115474;27;20043;-40
2023/07/29 04:31:53;;;;;;;8.35;6.10;;;16.20;99.90;;;;;;5115554;27;20545;-40
2023/07/29 04:34:19;;;;;;;9.95;6.93;;;16.20;99.90;;;;;;5113791;27;20116;-41
2023/07/29 04:36:45;;;;;;;8.30;6.28;;;16.30;99.90;;;;;;5100201;27;20047;-41
2023/07/29 04:39:11;;;;;;;6.70;5.93;;;16.50;99.90;;;;;;5118337;27;20051;-41
2023/07/29 04:41:36;;;;;;;8.15;5.90;;;16.50;99.90;;;;;;5099823;27;20058;-43
2023/07/29 04:44:02;;;;;;;11.10;6.43;;;16.50;99.90;;;;;;5116949;27;20099;-42
2023/07/29 04:46:28;;;;;;;6.38;5.72;;;16.60;99.90;;;;;;5118457;27;20051;-42
2023/07/29 04:48:54;;;;;;;8.35;6.18;;;16.70;99.90;;;;;;5118474;27;20409;-42
2023/07/29 04:51:19;;;;;;;9.68;6.00;;;16.60;99.90;;;;;;5117453;27;20531;-42
2023/07/29 04:53:45;;;;;;;8.15;5.45;;;16.60;99.90;;;;;;5116446;27;20570;-41
2023/07/29 04:56:11;;;;;;;7.63;5.15;;;16.60;99.90;;;;;;5116706;27;20641;-41
2023/07/29 04:58:37;;;;;;;8.60;5.35;;;16.60;99.90;;;;;;5117633;27;20082;-40
2023/07/29 05:01:03;;;;;;;8.70;5.18;;;16.60;99.90;;;;;;5117420;27;20069;-41
2023/07/29 05:03:29;;;;;;;7.70;4.93;;;16.60;99.90;;;;;;5109943;27;20046;-41
2023/07/29 05:05:56;;;;;;;8.38;5.20;;;16.60;99.90;;;;;;5120162;27;20550;-42
2023/07/29 05:08:22;;;;;;;7.53;5.35;;;16.60;99.90;;;;;;5108939;27;20074;-42
2023/07/29 05:10:54;;;;;;;6.53;4.50;;;16.60;99.90;;;;;;5117644;27;20583;-41
2023/07/29 05:13:20;;;;;;;9.30;4.72;;;16.70;99.90;;;;;;5115779;27;20516;-42
2023/07/29 05:15:47;;;;;;;7.13;4.53;;;16.70;99.90;;;;;;5068183;28;20108;-42
2023/07/29 05:18:13;;;;;;;9.20;4.95;;;16.70;99.90;;;;;;5085699;27;20055;-42
2023/07/29 05:20:39;;;;;;;7.53;4.85;;;16.70;99.90;;;;;;5099283;27;20425;-42
2023/07/29 05:23:04;;;;;;;8.85;4.80;;;16.70;99.90;;;;;;5077639;28;20059;-41
2023/07/29 05:25:30;;;;;;;10.80;5.60;;;16.70;99.90;;;;;;5111222;27;20075;-42
2023/07/29 05:27:57;;;;;;;10.07;4.57;;;16.80;99.90;;;;;;5118543;27;20099;-41
2023/07/29 05:30:22;;;;;;;8.05;4.75;;;16.80;99.90;;;;;;5117379;27;20047;-42
2023/07/29 05:32:48;;;;;;;9.95;5.15;;;16.80;99.90;;;;;;5098723;27;20047;-41
2023/07/29 05:35:14;;;;;;;7.00;4.53;;;16.90;99.90;;;;;;5117232;27;20420;-41
2023/07/29 05:37:40;;;;;;;9.57;4.72;;;16.90;99.90;;;;;;5116981;27;20070;-42
2023/07/29 05:40:07;;;;;;;10.48;4.85;;;16.90;99.90;;;;;;5117512;27;20353;-41
2023/07/29 05:42:33;;;;;;;8.50;4.75;;;16.90;99.90;;;;;;5097713;27;20145;-41
2023/07/29 05:44:59;;;;;;;7.55;4.85;;;16.90;99.90;;;;;;5115851;27;20234;-40
2023/07/29 05:47:25;;;;;;;7.38;4.95;;;16.90;99.90;;;;;;5115463;27;20050;-41
2023/07/29 05:49:51;;;;;;;11.80;4.90;;;16.90;99.90;;;;;;5116751;27;20043;-41
2023/07/29 05:52:16;;;;;;;8.20;4.35;;;17.00;99.90;;;;;;5115198;27;20051;-42
2023/07/29 05:54:42;;;;;;;6.65;4.70;;;17.10;99.90;;;;;;5098042;27;20054;-42
2023/07/29 05:57:09;;;;;;;9.20;4.85;;;17.10;99.90;;;;;;5116746;27;20043;-41
2023/07/29 05:59:35;;;;;;;8.60;5.20;;;17.20;99.90;;;;;;5116732;27;20046;-44
2023/07/29 06:02:01;;;;;;;9.95;5.05;;;17.30;99.90;;;;;;5116292;27;20047;-41
2023/07/29 06:04:27;;;;;;;14.88;5.45;;;17.30;99.90;;;;;;5114007;27;20047;-41
2023/07/29 06:06:52;;;;;;;7.70;4.82;;;17.50;99.90;;;;;;5115742;27;20049;-43
2023/07/29 06:09:18;;;;;;;9.43;5.28;;;17.60;99.90;;;;;;5111315;27;20055;-41
2023/07/29 06:11:43;;;;;;;9.70;4.93;;;17.80;99.90;;;;;;5102674;27;20051;-41
2023/07/29 06:14:09;;;;;;;9.13;5.32;;;17.90;99.90;;;;;;5096227;27;20144;-42
2023/07/29 06:16:35;;;;;;;12.38;5.90;;;18.10;99.90;;;;;;5102460;27;20046;-41
2023/07/29 06:19:00;;;;;;;10.88;5.57;;;18.10;99.90;;;;;;5060723;28;20413;-41
2023/07/29 06:21:26;;;;;;;8.73;4.65;;;18.10;99.90;;;;;;5130310;27;20513;-44
2023/07/29 06:23:52;;;;;;;9.15;4.95;;;18.10;99.90;;;;;;5112728;27;20375;-42
2023/07/29 06:26:18;;;;;;;8.68;5.05;;;18.10;99.90;;;;;;5116451;27;20051;-41
2023/07/29 06:28:43;;;;;;;10.38;5.22;;;18.20;99.90;;;;;;5116544;27;20057;-41
2023/07/29 06:31:09;;;;;;;8.32;4.75;;;18.30;99.90;;;;;;5097361;27;20481;-42
2023/07/29 06:33:34;;;;;;;10.85;4.75;;;18.30;99.90;;;;;;5114782;27;20523;-41
2023/07/29 06:36:00;;;;;;;7.05;4.93;;;18.40;99.90;;;;;;5102152;27;20564;-42
2023/07/29 06:38:26;;;;;;;8.90;4.78;;;18.40;99.90;;;;;;5115923;27;20464;-41
2023/07/29 06:40:52;;;;;;;8.90;5.15;;;18.40;99.90;;;;;;5096229;27;20123;-42
2023/07/29 06:43:18;;;;;;;11.43;5.55;;;18.30;99.90;;;;;;5113881;27;20581;-42
2023/07/29 06:45:43;;;;;;;6.97;4.55;;;18.40;99.90;;;;;;5115631;27;20039;-41
2023/07/29 06:48:09;;;;;;;10.75;5.70;;;18.40;99.90;;;;;;5115802;27;20054;-41
2023/07/29 06:50:35;;;;;;;10.13;4.97;;;18.40;99.90;;;;;;5115490;27;20370;-41
2023/07/29 06:53:00;;;;;;;10.05;4.80;;;18.50;99.90;;;;;;5111756;27;20055;-42
2023/07/29 06:55:26;;;;;;;17.65;5.63;;;18.50;99.90;;;;;;5112482;27;20047;-41
2023/07/29 06:57:51;;;;;;;11.65;4.90;;;18.40;99.90;;;;;;5111593;27;20655;-41
2023/07/29 07:00:17;;;;;;;17.38;5.13;;;18.50;99.90;;;;;;5110451;27;20050;-42
2023/07/29 07:02:43;;;;;;;9.88;4.55;;;18.50;99.90;;;;;;5091228;27;20050;-42
2023/07/29 07:05:09;;;;;;;11.35;4.85;;;18.50;99.90;;;;;;5110561;27;20043;-42
2023/07/29 07:07:34;;;;;;;9.07;4.18;;;18.60;99.90;;;;;;5091491;27;20079;-41
2023/07/29 07:10:00;;;;;;;14.02;4.30;;;18.60;99.90;;;;;;5100079;27;20861;-42
2023/07/29 07:12:26;;;;;;;8.90;4.60;;;19.30;99.90;;;;;;5086194;27;20051;-41
2023/07/29 07:14:52;;;;;;;9.60;3.90;;;19.90;99.90;;;;;;5094068;27;20051;-44
2023/07/29 07:17:18;;;;;;;8.70;4.10;;;20.20;99.90;;;;;;5110187;27;20123;-41
2023/07/29 07:19:44;;;;;;;8.75;3.92;;;20.20;99.90;;;;;;5091201;27;20151;-43
2023/07/29 07:22:09;;;;;;;6.70;3.58;;;20.50;99.90;;;;;;5112422;27;20043;-42
2023/07/29 07:24:35;;;;;;;9.20;4.00;;;20.80;99.90;;;;;;5113369;27;20039;-44
2023/07/29 07:27:01;;;;;;;7.55;3.53;;;21.20;99.90;;;;;;5114226;27;20054;-42
2023/07/29 07:29:27;;;;;;;10.23;3.83;;;21.60;99.90;;;;;;5114268;27;20207;-43
2023/07/29 07:31:53;;;;;;;8.52;3.20;;;21.70;99.90;;;;;;5095261;27;20055;-42
2023/07/29 07:34:20;;;;;;;13.52;3.78;;;21.50;99.90;;;;;;5113953;27;20043;-42
2023/07/29 07:36:46;;;;;;;8.90;3.88;;;21.20;99.90;;;;;;5115591;27;20397;-42
2023/07/29 07:39:12;;;;;;;8.13;3.58;;;20.80;99.90;;;;;;5115976;27;20043;-41
2023/07/29 07:41:38;;;;;;;6.40;3.35;;;20.70;99.90;;;;;;5115954;27;20042;-41
2023/07/29 07:44:04;;;;;;;7.72;4.00;;;20.60;99.90;;;;;;5116045;27;20932;-43
2023/07/29 07:46:29;;;;;;;8.60;3.83;;;20.60;99.90;;;;;;5097812;27;20047;-42
2023/07/29 07:48:55;;;;;;;6.70;3.33;;;20.70;99.90;;;;;;5098670;28;20755;-42
2023/07/29 07:51:21;;;;;;;9.13;3.38;;;20.90;99.90;;;;;;5116158;27;20055;-43
2023/07/29 07:53:46;;;;;;;8.00;3.65;;;21.00;99.90;;;;;;5116730;27;20074;-42
2023/07/29 07:56:12;;;;;;;8.40;4.07;;;21.10;99.90;;;;;;5125322;27;20047;-43
2023/07/29 07:58:38;;;;;;;6.38;2.97;;;21.10;99.90;;;;;;5104097;28;20069;-43
2023/07/29 08:01:08;;;;;;;6.72;3.53;;;21.10;99.90;;;;;;5100220;27;20074;-42
2023/07/29 08:03:34;;;;;;;8.05;2.63;;;21.20;99.90;;;;;;5107812;27;20471;-43
2023/07/29 08:06:00;;;;;;;8.50;2.58;;;21.30;99.90;;;;;;5111740;27;20052;-44
2023/07/29 08:08:27;;;;;;;6.05;2.72;;;21.30;99.90;;;;;;5108928;27;20477;-43
2023/07/29 08:10:54;;;;;;;8.40;2.88;;;21.30;99.90;;;;;;5096882;27;20471;-42
2023/07/29 08:13:20;;;;;;;8.30;3.42;;;21.20;99.90;;;;;;5116534;27;20046;-41
2023/07/29 08:15:49;;;;;;;8.30;3.03;;;20.80;99.90;;;;;;5105307;27;20581;-41
2023/07/29 08:18:16;;;;;;;5.57;2.72;;;20.50;99.90;;;;;;5100126;27;20047;-43
2023/07/29 08:20:50;;;;;;;6.40;2.75;;;20.40;99.90;;;;;;5098625;27;20840;-42
2023/07/29 08:23:16;;;;;;;7.15;2.70;;;20.40;99.90;;;;;;5095499;27;20043;-41
2023/07/29 08:25:42;;;;;;;5.13;2.40;;;20.80;99.90;;;;;;5095232;27;20078;-42
2023/07/29 08:28:07;;;;;;;6.53;2.70;;;21.40;99.90;;;;;;5116557;27;20050;-42
2023/07/29 08:30:33;;;;;;;6.38;2.95;;;21.90;99.90;;;;;;5118607;27;20046;-42
2023/07/29 08:32:58;;;;;;;5.40;2.80;;;22.20;99.90;;;;;;5115942;27;20039;-42
2023/07/29 08:35:24;;;;;;;4.85;2.47;;;22.50;99.90;;;;;;5105339;27;20126;-42
2023/07/29 08:37:50;;;;;;;8.30;3.28;;;22.50;99.90;;;;;;5102421;27;20463;-43
2023/07/29 08:40:15;;;;;;;6.97;3.15;;;22.70;99.90;;;;;;5102398;27;20047;-43
2023/07/29 08:42:42;;;;;;;7.97;2.83;;;22.80;99.90;;;;;;5101993;27;20146;-44
2023/07/29 08:45:08;;;;;;;4.38;2.53;;;22.70;99.90;;;;;;5104626;27;20421;-42
2023/07/29 08:47:34;;;;;;;6.70;2.85;;;22.50;99.90;;;;;;5109082;27;20046;-42
2023/07/29 08:50:01;;;;;;;6.60;2.67;;;22.50;99.90;;;;;;5117169;27;20159;-42
2023/07/29 08:52:28;;;;;;;7.20;2.22;;;22.50;99.90;;;;;;5117001;27;20039;-43
2023/07/29 08:54:55;;;;;;;6.38;2.97;;;22.50;99.90;;;;;;5115846;27;20076;-43
2023/07/29 08:57:21;;;;;;;6.38;2.72;;;22.40;99.90;;;;;;5104533;27;20123;-43
2023/07/29 08:59:47;;;;;;;5.72;2.60;;;22.50;99.90;;;;;;5105729;27;20043;-43
2023/07/29 09:02:13;;;;;;;7.90;2.33;;;22.60;99.90;;;;;;5103563;27;20038;-42
2023/07/29 09:04:39;;;;;;;9.60;2.78;;;22.60;99.90;;;;;;5104631;27;20064;-42
2023/07/29 09:07:06;;;;;;;7.85;2.97;;;22.60;99.90;;;;;;5105631;27;20155;-43
2023/07/29 09:09:32;;;;;;;6.15;2.85;;;22.50;99.90;;;;;;5103566;27;20058;-42
2023/07/29 09:11:57;;;;;;;5.80;2.60;;;22.50;99.90;;;;;;5083715;27;20055;-42
2023/07/29 09:14:24;;;;;;;7.03;2.70;;;22.50;99.90;;;;;;5103426;27;20481;-42
2023/07/29 09:16:50;;;;;;;8.68;2.30;;;22.30;99.90;;;;;;5101375;27;20825;-43
2023/07/29 09:19:16;;;;;;;7.22;3.22;;;22.20;99.90;;;;;;5107443;27;20050;-42
2023/07/29 09:21:45;;;;;;;5.47;2.67;;;22.20;99.90;;;;;;5103931;27;20039;-42
2023/07/29 09:24:15;;;;;;;8.93;3.20;;;22.20;99.90;;;;;;5102354;27;20213;-42
2023/07/29 09:26:49;;;;;;;9.10;3.05;;;22.10;99.90;;;;;;5084508;27;20504;-43
2023/07/29 09:29:14;;;;;;;7.18;2.65;;;22.00;99.90;;;;;;5107488;27;20038;-42
2023/07/29 09:31:40;;;;;;;5.50;2.80;;;22.00;99.90;;;;;;5109588;27;20044;-42
2023/07/29 09:34:06;;;;;;;6.63;3.08;;;21.90;99.90;;;;;;5111893;27;20055;-42
2023/07/29 09:36:33;;;;;;;9.38;3.05;;;22.00;99.90;;;;;;5102954;27;20470;-42
2023/07/29 09:38:59;;;;;;;7.13;2.95;;;22.10;99.90;;;;;;5103044;27;20086;-43
2023/07/29 09:41:26;;;;;;;5.50;2.72;;;22.20;99.90;;;;;;5104131;27;20043;-42
2023/07/29 09:44:01;;;;;;;7.03;2.88;;;22.40;99.90;;;;;;5105328;27;20166;-42
2023/07/29 09:46:35;;;;;;;8.98;2.88;;;22.70;99.90;;;;;;5103300;27;20122;-42
2023/07/29 09:49:03;;;;;;;6.55;2.90;;;23.10;99.90;;;;;;5083441;28;20233;-42
2023/07/29 09:51:29;;;;;;;6.95;2.60;;;23.20;99.90;;;;;;5108016;27;20371;-43
2023/07/29 09:53:55;;;;;;;7.85;2.80;;;23.30;99.90;;;;;;5106991;27;20043;-43
2023/07/29 09:56:26;;;;;;;4.57;2.15;;;23.30;99.90;;;;;;5085530;27;20494;-43
2023/07/29 09:58:52;;;;;;;5.45;2.22;;;23.10;99.90;;;;;;5116157;27;20549;-42
2023/07/29 10:01:18;;;;;;;8.90;2.97;;;23.20;99.90;;;;;;5115764;27;20339;-42
2023/07/29 10:03:45;;;;;;;6.95;3.13;;;23.20;99.90;;;;;;5112970;27;20039;-42
2023/07/29 10:06:11;;;;;;;5.80;3.38;;;23.10;99.90;;;;;;5112575;27;20047;-42
2023/07/29 10:08:38;;;;;;;8.60;3.10;;;23.50;99.90;;;;;;5107522;27;20529;-42
2023/07/29 10:11:09;;;;;;;7.68;2.78;;;23.60;99.90;;;;;;5114466;27;20104;-42
2023/07/29 10:13:36;;;;;;;6.10;2.53;;;23.20;99.90;;;;;;5113464;27;20473;-42
2023/07/29 10:16:03;;;;;;;7.78;3.75;;;22.90;99.90;;;;;;5100765;27;20066;-42
2023/07/29 10:18:30;;;;;;;6.45;2.80;;;22.50;99.90;;;;;;5111676;27;20112;-43
2023/07/29 10:20:57;;;;;;;5.05;2.42;;;22.30;99.90;;;;;;5106303;27;20039;-42
2023/07/29 10:23:25;;;;;;;13.07;4.45;;;22.30;99.90;;;;;;5113673;27;20436;-42
2023/07/29 10:26:03;;;;;;;6.15;2.58;;;22.20;99.90;;;;;;5117108;27;20126;-45
2023/07/29 10:28:30;;;;;;;4.65;2.00;;;21.90;99.90;;;;;;5117459;27;20094;-42
2023/07/29 10:30:58;;;;;;;4.05;2.30;;;21.60;99.90;;;;;;5118737;27;20189;-41
2023/07/29 10:33:24;;;;;;;7.35;2.63;;;21.40;99.90;;;;;;5125249;27;20325;-42
2023/07/29 10:35:50;;;;;;;6.88;2.53;;;21.40;99.90;;;;;;5134739;27;20052;-44
2023/07/29 10:38:17;;;;;;;5.13;2.20;;;21.30;99.90;;;;;;5134419;27;20062;-42
2023/07/29 10:41:01;;;;;;;4.57;2.08;;;21.40;99.90;;;;;;5134859;27;20042;-43
2023/07/29 10:43:30;;;;;;;9.05;2.72;;;21.40;99.90;;;;;;5133994;27;20517;-42
2023/07/29 10:45:56;;;;;;;6.97;2.60;;;21.40;99.90;;;;;;5134898;27;20054;-42
2023/07/29 10:48:37;;;;;;;5.82;2.50;;;21.20;99.90;;;;;;5122864;27;20044;-42
2023/07/29 10:51:25;;;;;;;8.07;2.88;;;21.10;99.90;;;;;;5060571;28;20107;-41
2023/07/29 10:54:00;;;;;;;6.18;2.65;;;20.90;99.90;;;;;;5097074;27;20105;-43
2023/07/29 10:56:32;;;;;;;9.75;3.65;;;20.90;99.90;;;;;;5100790;27;20040;-42
2023/07/29 10:59:02;;;;;;;9.10;3.38;;;20.90;99.90;;;;;;5096147;27;20489;-43
2023/07/29 11:01:34;;;;;;;8.93;3.80;;;20.90;99.90;;;;;;5097519;27;20457;-43
2023/07/29 11:04:23;;;;;;;;;;;21.00;99.90;;;;;;5095041;27;20048;-42
2023/07/29 11:07:04;;;;;;;10.02;3.00;;;21.10;99.90;;;;;;5009213;28;19929;-42
2023/07/29 11:09:48;;;;;;;7.35;3.17;;;21.10;99.90;;;;;;5011096;28;20052;-43
2023/07/29 11:12:32;;;;;;;6.78;3.15;;;21.20;99.90;;;;;;5018105;28;20136;-42
2023/07/29 11:15:03;;;;;;;5.30;3.03;;;21.30;99.90;;;;;;5028457;28;20082;-44
2023/07/29 11:17:32;;;;;;;6.40;2.90;;;21.40;99.90;;;;;;5026206;28;20088;-42
2023/07/29 11:20:01;;;;;;;7.15;3.47;;;21.70;99.90;;;;;;5031913;28;20044;-43
2023/07/29 11:22:26;;;;;;;8.07;2.88;;;21.80;99.90;;;;;;5011865;28;20049;-43
2023/07/29 11:24:52;;;;;;;8.18;2.92;;;21.90;99.90;;;;;;5013231;28;20088;-42
2023/07/29 11:27:18;;;;;;;6.35;3.55;;;22.00;99.90;;;;;;5029758;28;20049;-42
2023/07/29 11:29:43;;;;;;;9.18;3.75;;;21.80;99.90;;;;;;5029415;28;20965;-43
2023/07/29 11:32:09;;;;;;;5.80;2.88;;;21.70;99.90;;;;;;5029915;28;20494;-42
2023/07/29 11:34:35;;;;;;;6.75;4.00;;;21.60;99.90;;;;;;5050089;28;20551;-42
2023/07/29 11:37:01;;;;;;;8.20;3.90;;;21.40;99.90;;;;;;5030624;28;20601;-42
2023/07/29 11:39:26;;;;;;;7.30;3.83;;;21.50;99.90;;;;;;5029991;28;20052;-43
2023/07/29 11:41:52;;;;;;;11.02;4.28;;;21.60;99.90;;;;;;5010761;28;20049;-42
2023/07/29 11:44:18;;;;;;;8.35;4.13;;;21.90;99.90;;;;;;5079921;27;20520;-42
2023/07/29 11:46:44;;;;;;;12.95;3.90;;;22.10;99.90;;;;;;5079823;27;20051;-42
2023/07/29 11:49:10;;;;;;;7.07;3.50;;;22.50;99.90;;;;;;5098547;27;20079;-45
2023/07/29 11:51:41;;;;;;;8.00;4.45;;;22.70;99.90;;;;;;5102876;27;20050;-43
2023/07/29 11:54:08;;;;;;;8.00;3.22;;;22.50;99.90;;;;;;5129409;27;20043;-42
2023/07/29 11:56:34;;;;;;;6.88;3.10;;;22.40;99.90;;;;;;5135115;27;20042;-44
2023/07/29 11:59:00;;;;;;;6.40;3.28;;;22.40;99.90;;;;;;5139841;27;20075;-43
2023/07/29 12:01:28;;;;;;;5.50;2.83;;;22.40;99.90;;;;;;5139663;27;20250;-41
2023/07/29 12:03:55;;;;;;;5.57;2.42;;;22.20;99.90;;;;;;5138565;27;20125;-42
2023/07/29 12:06:22;;;;;;;4.85;2.60;;;22.10;99.90;;;;;;5138455;27;20089;-42
2023/07/29 12:08:48;;;;;;;6.35;2.70;;;22.00;99.90;;;;;;5124373;27;20047;-42
2023/07/29 12:11:14;;;;;;;6.22;2.33;;;22.00;99.90;;;;;;5117767;27;20043;-41
2023/07/29 12:13:42;;;;;;;5.10;3.00;;;22.10;99.90;;;;;;5117599;27;20125;-43
2023/07/29 12:16:07;;;;;;;5.05;2.65;;;22.10;99.90;;;;;;5085417;27;20052;-42
2023/07/29 12:18:33;;;;;;;8.00;3.63;;;22.10;99.90;;;;;;5117955;27;20723;-42
2023/07/29 12:21:00;;;;;;;6.43;3.40;;;22.10;99.90;;;;;;5117247;27;20043;-43
2023/07/29 12:23:25;;;;;;;6.63;3.60;;;22.10;99.90;;;;;;5112914;27;20425;-42
2023/07/29 12:25:59;;;;;;;8.40;3.65;;;22.10;99.90;;;;;;5112607;27;20047;-43
2023/07/29 12:28:25;;;;;;;7.22;3.70;;;21.90;99.90;;;;;;5116098;27;20047;-42
2023/07/29 12:30:57;;;;;;;7.45;3.60;;;21.70;99.90;;;;;;5116089;27;20089;-43
2023/07/29 12:33:34;;;;;;;6.18;3.65;;;21.50;99.90;;;;;;5109779;27;20557;-41
2023/07/29 12:36:00;;;;;;;8.40;4.15;;;21.50;99.90;;;;;;5136629;27;20153;-43
2023/07/29 12:38:27;;;;;;;11.50;4.72;;;21.30;99.90;;;;;;5112550;27;20074;-42
2023/07/29 12:40:53;;;;;;;9.23;4.18;;;21.20;99.90;;;;;;5078445;28;20167;-43